Providenciales International Airport (MBPV)
Providenciales, TC
Field Elevation: 28
Lat: 21°46.43N  Long: 72°16.12W
CTAF/Unicom Freq: 126.0000
   
    
Weather Advisories
4/19/2014 22:21 Z
Altimeter 29.98" Hg
Wind 100° @ 12 KT
Gusts 18 KT
Temperature 28° C (82° F)
Dewpoint 22° C (72° F)
Relative Humidity 71%
Density Altitude 1,400 feet
Condensation Altitude 2,800 feet
Precipitation 0.0" / 0.0" (hour/day)
Heat Index 31° C (88° F)

  Wind and Runways
Indicated Runway = 10
tr>
History
 
 
More Info
All DigiWx sites map
 
NOAA Forecast
 
 
about DigiWx
  METAR MBPV 192221Z AUTO 10012G18KT 28/22 A2998